Time;durP1;ratioP1;P1;durP2;ratioP2;P2;SDS_P1;SDS_P2;PMS_P1;PMS_P2;Temp;Humidity;BMP_temperature;BMP_pressure;BME280_temperature;BME280_humidity;BME280_pressure;Samples;Min_cycle;Max_cycle;Signal;HPM_P1;HPM_P2
2022/09/16 00:00:35;;;;;;;12.10;11.20;;;12.90;99.90;;;;;;4918536;29;20235;-77
2022/09/16 00:03:02;;;;;;;12.93;11.77;;;13.00;99.90;;;;;;4913133;29;20197;-77
2022/09/16 00:05:29;;;;;;;12.77;11.67;;;13.00;99.90;;;;;;4904218;29;20202;-77
2022/09/16 00:07:56;;;;;;;12.70;11.40;;;13.00;99.90;;;;;;4911931;29;20207;-77
2022/09/16 00:10:23;;;;;;;11.77;10.87;;;13.00;99.90;;;;;;4914190;29;20196;-77
2022/09/16 00:12:50;;;;;;;13.90;12.67;;;13.00;99.90;;;;;;4915958;29;20707;-77
2022/09/16 00:15:19;;;;;;;12.97;12.00;;;13.00;99.90;;;;;;4917675;29;20211;-77
2022/09/16 00:17:46;;;;;;;13.13;11.93;;;13.10;99.90;;;;;;4897172;29;20259;-77
2022/09/16 00:20:13;;;;;;;12.67;11.60;;;13.10;99.90;;;;;;4912665;29;20275;-77
2022/09/16 00:22:40;;;;;;;13.17;12.23;;;13.10;99.90;;;;;;4915834;29;20248;-77
2022/09/16 00:25:07;;;;;;;12.23;11.27;;;13.10;99.90;;;;;;4918274;29;20491;-77
2022/09/16 00:27:34;;;;;;;11.57;10.67;;;13.10;99.90;;;;;;4921758;29;20732;-77
2022/09/16 00:30:01;;;;;;;11.47;10.60;;;13.10;99.90;;;;;;4902135;29;20295;-77
2022/09/16 00:32:29;;;;;;;12.10;11.20;;;13.10;99.90;;;;;;4897606;29;20247;-77
2022/09/16 00:34:56;;;;;;;15.63;11.60;;;13.10;99.90;;;;;;4905098;29;20210;-77
2022/09/16 00:37:24;;;;;;;13.27;12.00;;;13.10;99.90;;;;;;4914977;29;20204;-77
2022/09/16 00:39:51;;;;;;;12.70;11.70;;;13.10;99.90;;;;;;4918649;29;20720;-77
2022/09/16 00:42:18;;;;;;;12.40;11.50;;;13.10;99.90;;;;;;4904008;29;20662;-77
2022/09/16 00:44:55;;;;;;;12.77;11.87;;;13.10;99.90;;;;;;4919560;29;20201;-77
2022/09/16 00:47:26;;;;;;;11.57;10.77;;;13.10;99.90;;;;;;4921509;29;20202;-77
2022/09/16 00:50:00;;;;;;;12.50;11.50;;;13.10;99.90;;;;;;4918328;29;20216;-77
2022/09/16 00:52:28;;;;;;;12.30;11.30;;;13.10;99.90;;;;;;4915158;29;20212;-77
2022/09/16 00:54:55;;;;;;;12.30;11.40;;;13.10;99.90;;;;;;4916920;29;20621;-77
2022/09/16 00:57:22;;;;;;;12.57;11.67;;;13.00;99.90;;;;;;4900783;29;20208;-77
2022/09/16 00:59:54;;;;;;;12.93;12.03;;;13.00;99.90;;;;;;4916320;29;20278;-77
2022/09/16 01:02:22;;;;;;;12.50;11.50;;;13.00;99.90;;;;;;4902227;29;20196;-77
2022/09/16 01:04:55;;;;;;;12.90;12.00;;;12.90;99.90;;;;;;4900085;29;20199;-77
2022/09/16 01:07:31;;;;;;;12.57;11.53;;;12.90;99.90;;;;;;4917236;29;20221;-77
2022/09/16 01:09:58;;;;;;;12.90;12.00;;;12.90;99.90;;;;;;4916746;29;20310;-77
2022/09/16 01:12:28;;;;;;;13.07;11.93;;;12.80;99.90;;;;;;4904114;29;20212;-77
2022/09/16 01:14:57;;;;;;;12.43;11.53;;;12.80;99.90;;;;;;4920427;29;20199;-77
2022/09/16 01:17:52;;;;;;;12.67;11.57;;;12.70;99.90;;;;;;4897483;29;20294;-77
2022/09/16 01:20:35;;;;;;;12.77;11.67;;;12.70;99.90;;;;;;4920004;29;20220;-77
2022/09/16 01:23:29;;;;;;;13.27;12.27;;;12.60;99.90;;;;;;4919078;29;20238;-77
2022/09/16 01:26:11;;;;;;;13.17;12.20;;;12.60;99.90;;;;;;4917821;29;20194;-77
2022/09/16 01:29:01;;;;;;;13.10;12.20;;;12.60;99.90;;;;;;4914801;29;20290;-77
2022/09/16 01:31:37;;;;;;;14.87;13.73;;;12.60;99.90;;;;;;4896615;29;20203;-77
2022/09/16 01:34:16;;;;;;;13.50;12.50;;;12.70;99.90;;;;;;4901505;29;20203;-76
2022/09/16 01:36:49;;;;;;;13.67;12.67;;;12.60;99.90;;;;;;4917868;29;20206;-76
2022/09/16 01:39:28;;;;;;;13.77;12.60;;;12.70;99.90;;;;;;4915782;29;20290;-77
2022/09/16 01:42:13;;;;;;;13.83;12.83;;;12.70;99.90;;;;;;4916140;29;20278;-77
2022/09/16 01:44:46;;;;;;;14.27;13.27;;;12.70;99.90;;;;;;4908315;29;20206;-77
2022/09/16 01:47:22;;;;;;;14.03;12.93;;;12.70;99.90;;;;;;4896628;29;20261;-77
2022/09/16 01:50:00;;;;;;;13.17;12.27;;;12.60;99.90;;;;;;4917174;29;20261;-77
2022/09/16 01:52:37;;;;;;;13.23;12.23;;;12.60;99.90;;;;;;4891193;29;20218;-77
2022/09/16 01:55:07;;;;;;;14.40;13.30;;;12.60;99.90;;;;;;4903954;29;20223;-77
2022/09/16 01:57:40;;;;;;;14.07;12.97;;;12.60;99.90;;;;;;4919145;29;20247;-77
2022/09/16 02:00:10;;;;;;;14.40;13.20;;;12.60;99.90;;;;;;4901903;29;20287;-77
2022/09/16 02:02:44;;;;;;;14.43;13.43;;;12.50;99.90;;;;;;4914454;29;20202;-77
2022/09/16 02:05:16;;;;;;;15.17;13.73;;;12.50;99.90;;;;;;4913505;29;20209;-77
2022/09/16 02:07:54;;;;;;;14.67;13.47;;;12.50;99.90;;;;;;4901169;29;20204;-77
2022/09/16 02:10:26;;;;;;;14.57;13.30;;;12.50;99.90;;;;;;4916947;29;20205;-77
2022/09/16 02:12:57;;;;;;;15.57;14.27;;;12.50;99.90;;;;;;4916465;29;20779;-77
2022/09/16 02:15:26;;;;;;;15.07;14.03;;;12.50;99.90;;;;;;4903799;29;20670;-77
2022/09/16 02:18:00;;;;;;;15.23;14.13;;;12.60;99.90;;;;;;4916336;29;20251;-77
2022/09/16 02:20:30;;;;;;;15.83;14.53;;;12.60;99.90;;;;;;4910234;29;20262;-77
2022/09/16 02:23:02;;;;;;;14.97;13.87;;;12.60;99.90;;;;;;4907206;29;20247;-77
2022/09/16 02:25:33;;;;;;;14.20;13.10;;;12.60;99.90;;;;;;4904312;29;20205;-77
2022/09/16 02:28:03;;;;;;;13.93;12.90;;;12.50;99.90;;;;;;4917392;29;20292;-77
2022/09/16 02:30:31;;;;;;;13.87;12.87;;;12.60;99.90;;;;;;4913518;29;20206;-77
2022/09/16 02:33:06;;;;;;;14.43;13.33;;;12.60;99.90;;;;;;4915020;29;20250;-77
2022/09/16 02:35:36;;;;;;;15.27;14.07;;;12.60;99.90;;;;;;4897657;29;20264;-76
2022/09/16 02:38:06;;;;;;;14.63;13.63;;;12.60;99.90;;;;;;4918248;29;20211;-77
2022/09/16 02:40:37;;;;;;;14.17;13.17;;;12.60;99.90;;;;;;4901010;29;20200;-76
2022/09/16 02:43:04;;;;;;;15.23;14.13;;;12.50;99.90;;;;;;4915069;29;20211;-76
2022/09/16 02:45:41;;;;;;;13.70;12.70;;;12.50;99.90;;;;;;4922061;29;20231;-77
2022/09/16 02:48:17;;;;;;;13.30;12.40;;;12.50;99.90;;;;;;4923468;29;20206;-76
2022/09/16 02:51:00;;;;;;;15.40;14.30;;;12.50;99.90;;;;;;4919881;29;20726;-77
2022/09/16 02:53:43;;;;;;;15.77;14.47;;;12.50;99.90;;;;;;4891187;29;20234;-78
2022/09/16 02:56:15;;;;;;;15.90;14.70;;;12.50;99.90;;;;;;4929163;29;20248;-77
2022/09/16 02:58:42;;;;;;;15.97;14.60;;;12.50;99.90;;;;;;4927335;29;20228;-76
2022/09/16 03:01:13;;;;;;;16.73;15.33;;;12.50;99.90;;;;;;4912921;29;20232;-76
2022/09/16 03:03:41;;;;;;;16.07;14.87;;;12.50;99.90;;;;;;4888625;29;20219;-77
2022/09/16 03:06:19;;;;;;;16.23;14.93;;;12.40;99.90;;;;;;4910332;29;20232;-77
2022/09/16 03:08:47;;;;;;;16.23;14.93;;;12.30;99.90;;;;;;4891953;29;20220;-77
2022/09/16 03:11:34;;;;;;;16.77;15.47;;;12.30;99.90;;;;;;4908041;29;20263;-77
2022/09/16 03:14:29;;;;;;;16.30;15.00;;;12.30;99.90;;;;;;4889137;29;20226;-76
2022/09/16 03:17:04;;;;;;;15.93;14.73;;;12.30;99.90;;;;;;4903036;29;20642;-77
2022/09/16 03:19:44;;;;;;;17.37;15.90;;;12.30;99.90;;;;;;4902114;29;20564;-81
2022/09/16 03:22:18;;;;;;;15.83;14.73;;;12.20;99.90;;;;;;4895894;29;20212;-77
2022/09/16 03:24:53;;;;;;;17.27;15.97;;;12.10;99.90;;;;;;4920993;29;20284;-77
2022/09/16 03:27:28;;;;;;;15.70;14.50;;;12.10;99.90;;;;;;4914776;29;20196;-76
2022/09/16 03:30:01;;;;;;;16.13;14.93;;;12.10;99.90;;;;;;4897906;29;20320;-77
2022/09/16 03:32:32;;;;;;;17.00;15.80;;;12.10;99.90;;;;;;4887651;29;20247;-78
2022/09/16 03:35:04;;;;;;;16.10;15.00;;;12.10;99.90;;;;;;4893556;29;20782;-77
2022/09/16 03:37:34;;;;;;;16.00;14.90;;;12.00;99.90;;;;;;4908523;29;20196;-76
2022/09/16 03:40:07;;;;;;;16.57;15.47;;;12.10;99.90;;;;;;4893888;29;20746;-76
2022/09/16 03:42:35;;;;;;;17.17;15.73;;;12.10;99.90;;;;;;4901356;29;20206;-74
2022/09/16 03:45:01;;;;;;;18.83;17.23;;;12.10;99.90;;;;;;4910823;29;20288;-74
2022/09/16 03:47:28;;;;;;;17.77;16.50;;;12.20;99.90;;;;;;4902239;29;20262;-74
2022/09/16 03:49:55;;;;;;;19.07;17.43;;;12.20;99.90;;;;;;4914813;29;20229;-75
2022/09/16 03:52:23;;;;;;;17.17;16.03;;;12.20;99.90;;;;;;4911693;29;20263;-75
2022/09/16 03:54:50;;;;;;;18.00;16.60;;;12.30;99.90;;;;;;4912180;29;20679;-75
2022/09/16 03:57:16;;;;;;;18.17;16.77;;;12.30;99.90;;;;;;4910048;29;20284;-75
2022/09/16 03:59:43;;;;;;;17.70;16.50;;;12.30;99.90;;;;;;4913556;29;20270;-74
2022/09/16 04:02:10;;;;;;;18.20;16.80;;;12.40;99.90;;;;;;4912861;29;20224;-75
2022/09/16 04:04:37;;;;;;;17.87;16.63;;;12.40;99.90;;;;;;4911557;29;20197;-75
2022/09/16 04:07:04;;;;;;;17.70;16.30;;;12.50;99.90;;;;;;4915502;29;20238;-74
2022/09/16 04:09:32;;;;;;;17.43;16.03;;;12.50;99.90;;;;;;4914627;29;20278;-75
2022/09/16 04:11:59;;;;;;;18.67;17.10;;;12.50;99.90;;;;;;4915042;29;20205;-75
2022/09/16 04:14:26;;;;;;;18.33;16.97;;;12.60;99.90;;;;;;4900645;29;20595;-75
2022/09/16 04:16:54;;;;;;;18.97;17.57;;;12.60;99.90;;;;;;4914073;29;20277;-75
2022/09/16 04:19:21;;;;;;;18.43;17.17;;;12.60;99.90;;;;;;4904867;29;20231;-75
2022/09/16 04:21:47;;;;;;;18.40;17.13;;;12.60;99.90;;;;;;4905599;29;20264;-74
2022/09/16 04:24:14;;;;;;;17.53;16.33;;;12.60;99.90;;;;;;4909260;29;20289;-74
2022/09/16 04:26:42;;;;;;;17.13;15.93;;;12.60;99.90;;;;;;4897352;29;20684;-74
2022/09/16 04:29:09;;;;;;;17.00;15.70;;;12.60;99.90;;;;;;4913225;29;20226;-74
2022/09/16 04:31:36;;;;;;;17.60;16.30;;;12.60;99.90;;;;;;4916169;29;20201;-74
2022/09/16 04:34:04;;;;;;;17.23;16.07;;;12.70;99.90;;;;;;4915170;29;20261;-74
2022/09/16 04:36:32;;;;;;;17.97;16.47;;;12.70;99.90;;;;;;4911943;29;20202;-74
2022/09/16 04:38:59;;;;;;;18.10;16.70;;;12.80;99.90;;;;;;4911603;29;20223;-74
2022/09/16 04:41:27;;;;;;;18.60;17.20;;;12.80;99.90;;;;;;4910239;29;20706;-74
2022/09/16 04:43:57;;;;;;;18.47;17.07;;;12.80;99.90;;;;;;4897730;29;20571;-74
2022/09/16 04:46:24;;;;;;;18.40;17.20;;;12.80;99.90;;;;;;4910496;29;20208;-74
2022/09/16 04:48:52;;;;;;;19.37;18.00;;;12.80;99.90;;;;;;4891237;29;20275;-74
2022/09/16 04:51:21;;;;;;;19.07;17.67;;;12.80;99.90;;;;;;4916268;29;20229;-74
2022/09/16 04:53:48;;;;;;;19.63;18.17;;;12.80;99.90;;;;;;4896562;29;20634;-77
2022/09/16 04:56:17;;;;;;;19.00;17.70;;;12.90;99.90;;;;;;4914544;29;20303;-76
2022/09/16 04:58:45;;;;;;;19.10;17.70;;;12.90;99.90;;;;;;4918415;29;20336;-75
2022/09/16 05:01:15;;;;;;;17.10;15.90;;;12.90;99.90;;;;;;4912400;29;20298;-75
2022/09/16 05:03:42;;;;;;;17.60;16.47;;;12.90;99.90;;;;;;4908111;29;20203;-74
2022/09/16 05:06:11;;;;;;;18.33;17.03;;;12.90;99.90;;;;;;4915766;29;20204;-75
2022/09/16 05:08:39;;;;;;;18.67;17.37;;;12.90;99.90;;;;;;4911245;29;20211;-74
2022/09/16 05:11:08;;;;;;;18.83;17.53;;;12.80;99.90;;;;;;4893415;29;20211;-75
2022/09/16 05:13:35;;;;;;;19.17;17.77;;;12.80;99.90;;;;;;4897285;29;20233;-74
2022/09/16 05:16:04;;;;;;;19.77;18.07;;;12.80;99.90;;;;;;4913652;29;20627;-75
2022/09/16 05:18:32;;;;;;;19.33;17.83;;;12.80;99.90;;;;;;4896170;29;20283;-74
2022/09/16 05:21:00;;;;;;;17.53;16.33;;;12.80;99.90;;;;;;4895365;29;20225;-74
2022/09/16 05:23:27;;;;;;;17.33;16.13;;;12.80;99.90;;;;;;4916144;29;20247;-75
2022/09/16 05:25:54;;;;;;;17.70;16.50;;;13.00;99.90;;;;;;4913472;29;20605;-75
2022/09/16 05:30:50;;;;;;;18.33;17.03;;;13.00;99.90;;;;;;4868829;29;20704;-78
2022/09/16 05:33:17;;;;;;;17.90;16.70;;;13.10;99.90;;;;;;4851762;29;20230;-78
2022/09/16 05:35:45;;;;;;;18.83;17.43;;;13.10;99.90;;;;;;4855060;29;20205;-79
2022/09/16 05:38:13;;;;;;;18.67;17.27;;;13.10;99.90;;;;;;4853551;29;20212;-78
2022/09/16 05:40:40;;;;;;;18.53;17.03;;;13.10;99.90;;;;;;4850400;29;20654;-78
2022/09/16 05:43:06;;;;;;;17.97;16.67;;;13.10;99.90;;;;;;4850606;29;20202;-78
2022/09/16 05:45:34;;;;;;;17.27;16.10;;;13.10;99.90;;;;;;4880091;29;20239;-78
2022/09/16 05:48:01;;;;;;;17.63;16.43;;;13.10;99.90;;;;;;4880632;29;20197;-79
2022/09/16 05:50:27;;;;;;;17.47;16.27;;;13.10;99.90;;;;;;4852832;29;20699;-78
2022/09/16 05:52:55;;;;;;;17.50;16.30;;;13.00;99.90;;;;;;4844119;29;20209;-78
2022/09/16 05:55:23;;;;;;;18.07;16.60;;;13.10;99.90;;;;;;4868902;29;20213;-78
2022/09/16 05:57:49;;;;;;;17.20;15.90;;;13.20;99.90;;;;;;4869693;29;20288;-78
2022/09/16 06:00:16;;;;;;;17.20;16.00;;;13.20;99.90;;;;;;4849254;29;20228;-78
2022/09/16 06:02:43;;;;;;;17.27;16.07;;;13.20;99.90;;;;;;4867869;29;20254;-78
2022/09/16 06:05:10;;;;;;;17.00;15.80;;;13.20;99.90;;;;;;4868789;29;20209;-78
2022/09/16 06:07:37;;;;;;;17.43;16.17;;;13.10;99.90;;;;;;4868473;29;20194;-78
2022/09/16 06:10:06;;;;;;;17.17;16.00;;;13.10;99.90;;;;;;4844067;29;20222;-78
2022/09/16 06:12:33;;;;;;;17.20;16.00;;;13.20;99.90;;;;;;4851718;29;20693;-78
2022/09/16 06:15:00;;;;;;;19.00;17.63;;;13.10;99.90;;;;;;4871710;29;20269;-78
2022/09/16 06:17:27;;;;;;;18.73;17.40;;;13.10;99.90;;;;;;4846055;29;20212;-78
2022/09/16 06:19:54;;;;;;;18.77;17.40;;;13.10;99.90;;;;;;4842540;29;20267;-78
2022/09/16 06:22:20;;;;;;;18.10;16.80;;;13.10;99.90;;;;;;4851909;29;20206;-78
2022/09/16 06:24:48;;;;;;;18.10;16.80;;;13.00;99.90;;;;;;4868085;29;20613;-78
2022/09/16 06:27:16;;;;;;;17.67;16.47;;;13.00;99.90;;;;;;4844170;29;20201;-78
2022/09/16 06:29:43;;;;;;;17.70;16.47;;;13.00;99.90;;;;;;4847485;29;20299;-78
2022/09/16 06:32:10;;;;;;;18.50;17.20;;;13.00;99.90;;;;;;4870959;29;20204;-78
2022/09/16 06:34:37;;;;;;;18.10;16.80;;;13.00;99.90;;;;;;4845470;29;20709;-78
2022/09/16 06:37:04;;;;;;;17.80;16.57;;;13.00;99.90;;;;;;4865446;29;20211;-78
2022/09/16 06:39:31;;;;;;;18.63;16.93;;;13.00;99.90;;;;;;4868072;29;20228;-78
2022/09/16 06:41:57;;;;;;;18.57;17.10;;;13.00;99.90;;;;;;4868064;29;20553;-78
2022/09/16 06:44:41;;;;;;;18.67;17.37;;;12.90;99.90;;;;;;4845133;29;20201;-78
2022/09/16 06:47:08;;;;;;;17.53;16.33;;;12.90;99.90;;;;;;4851744;29;20201;-78
2022/09/16 06:49:35;;;;;;;18.17;16.70;;;13.00;99.90;;;;;;4851787;29;20641;-78
2022/09/16 06:52:02;;;;;;;18.00;16.70;;;13.00;99.90;;;;;;4851524;29;20575;-78
2022/09/16 06:54:29;;;;;;;18.33;17.00;;;13.00;99.90;;;;;;4869188;29;20278;-78
2022/09/16 06:56:56;;;;;;;17.90;16.47;;;13.00;99.90;;;;;;4844577;29;20209;-78
2022/09/16 06:59:23;;;;;;;17.53;16.10;;;13.00;99.90;;;;;;4863069;29;20710;-78
2022/09/16 07:01:51;;;;;;;17.73;16.43;;;13.10;99.90;;;;;;4870728;29;20201;-78
2022/09/16 07:04:18;;;;;;;16.97;15.77;;;13.00;99.90;;;;;;4866138;29;20715;-78
2022/09/16 07:06:45;;;;;;;18.53;17.23;;;13.00;99.90;;;;;;4868047;29;20210;-78
2022/09/16 07:09:12;;;;;;;16.93;15.73;;;13.00;99.90;;;;;;4852369;29;20270;-79
2022/09/16 07:11:40;;;;;;;18.13;16.73;;;13.00;99.90;;;;;;4867922;29;20225;-77
2022/09/16 07:14:09;;;;;;;17.50;16.10;;;13.00;99.90;;;;;;4862300;29;20252;-78
2022/09/16 07:16:35;;;;;;;17.50;16.23;;;13.10;99.90;;;;;;4850644;29;20299;-77
2022/09/16 07:19:04;;;;;;;16.53;15.33;;;13.00;99.90;;;;;;4846138;29;20584;-79
2022/09/16 07:21:31;;;;;;;16.00;14.80;;;12.90;99.90;;;;;;4868483;29;20273;-79
2022/09/16 07:23:59;;;;;;;16.53;15.23;;;12.90;99.90;;;;;;4858024;29;20666;-78
2022/09/16 07:26:27;;;;;;;15.17;13.97;;;12.80;99.90;;;;;;4854066;29;20204;-78
2022/09/16 07:28:55;;;;;;;14.43;13.43;;;12.80;99.90;;;;;;4850665;29;20314;-78
2022/09/16 07:31:24;;;;;;;15.40;14.33;;;12.80;99.90;;;;;;4855533;29;20213;-78
2022/09/16 07:33:52;;;;;;;14.73;13.73;;;12.80;99.90;;;;;;4850455;29;20284;-78
2022/09/16 07:36:22;;;;;;;14.47;13.40;;;12.80;99.90;;;;;;4874634;29;20208;-81
2022/09/16 07:38:51;;;;;;;14.67;13.57;;;12.80;99.90;;;;;;4874310;29;20217;-81
2022/09/16 07:41:19;;;;;;;15.50;14.10;;;12.80;99.90;;;;;;4858666;29;20265;-81
2022/09/16 07:43:46;;;;;;;15.50;14.40;;;12.80;99.90;;;;;;4857695;29;20291;-81
2022/09/16 07:46:16;;;;;;;14.97;13.77;;;12.70;99.90;;;;;;4869892;29;20617;-80
2022/09/16 07:48:43;;;;;;;15.20;13.90;;;12.70;99.90;;;;;;4855217;29;20251;-81
2022/09/16 07:51:12;;;;;;;14.73;13.83;;;12.70;99.90;;;;;;4855317;29;20290;-81
2022/09/16 07:53:41;;;;;;;14.37;13.27;;;12.60;99.90;;;;;;4852280;29;20289;-81
2022/09/16 07:56:10;;;;;;;14.30;13.30;;;12.60;99.90;;;;;;4848431;29;20267;-81
2022/09/16 07:58:37;;;;;;;14.70;13.33;;;12.50;99.90;;;;;;4856930;29;20215;-81
2022/09/16 08:01:05;;;;;;;14.80;13.57;;;12.60;99.90;;;;;;4850458;29;20201;-81
2022/09/16 08:03:33;;;;;;;14.60;13.37;;;12.60;99.90;;;;;;4857274;29;20208;-80
2022/09/16 08:06:01;;;;;;;15.33;14.03;;;12.60;99.90;;;;;;4852142;29;20744;-81
2022/09/16 08:08:27;;;;;;;15.00;13.90;;;12.70;99.90;;;;;;4839469;29;20205;-80
2022/09/16 08:10:56;;;;;;;15.50;14.20;;;12.60;99.90;;;;;;4856456;29;20197;-80
2022/09/16 08:13:24;;;;;;;15.43;14.23;;;12.70;99.90;;;;;;4873337;29;20299;-80
2022/09/16 08:15:52;;;;;;;16.30;14.90;;;12.60;99.90;;;;;;4858923;29;20207;-80
2022/09/16 08:18:19;;;;;;;16.00;14.70;;;12.50;99.90;;;;;;4849189;29;20212;-80
2022/09/16 08:20:46;;;;;;;15.37;14.07;;;12.40;99.90;;;;;;4844554;29;20259;-81
2022/09/16 08:23:13;;;;;;;15.23;14.10;;;12.40;99.90;;;;;;4875194;29;20205;-81
2022/09/16 08:25:40;;;;;;;15.20;14.20;;;12.40;99.90;;;;;;4845181;29;20244;-81
2022/09/16 08:28:12;;;;;;;14.90;13.90;;;12.30;99.90;;;;;;4846115;29;20315;-81
2022/09/16 08:30:39;;;;;;;15.10;13.50;;;12.40;99.90;;;;;;4861838;29;20284;-81
2022/09/16 08:33:06;;;;;;;14.93;13.83;;;12.20;99.90;;;;;;4846305;29;20212;-81
2022/09/16 08:35:33;;;;;;;14.57;13.60;;;12.30;99.90;;;;;;4862291;29;20365;-81
2022/09/16 08:38:00;;;;;;;14.10;13.20;;;12.30;99.90;;;;;;4845493;29;20203;-80
2022/09/16 08:40:33;;;;;;;14.50;13.40;;;12.30;99.90;;;;;;4862073;29;20242;-81
2022/09/16 08:43:09;;;;;;;14.20;13.30;;;12.50;99.90;;;;;;4845505;29;20213;-81
2022/09/16 08:45:44;;;;;;;14.80;13.80;;;12.50;99.90;;;;;;4860480;29;20208;-81
2022/09/16 08:48:28;;;;;;;14.17;13.03;;;12.60;99.90;;;;;;4845562;29;20272;-81
2022/09/16 08:50:57;;;;;;;12.80;12.10;;;12.80;99.90;;;;;;4845211;29;20206;-82
2022/09/16 08:53:32;;;;;;;14.30;13.30;;;13.00;99.90;;;;;;4845505;29;20289;-82
2022/09/16 08:56:02;;;;;;;13.20;12.40;;;13.00;99.90;;;;;;4848977;29;20704;-82
2022/09/16 08:58:35;;;;;;;13.40;12.33;;;13.00;99.90;;;;;;4827217;29;20688;-81
2022/09/16 09:01:14;;;;;;;13.70;12.70;;;12.90;99.90;;;;;;4844219;29;20210;-81
2022/09/16 09:03:43;;;;;;;13.60;12.70;;;12.90;99.90;;;;;;4843824;29;20631;-81
2022/09/16 09:06:20;;;;;;;12.97;12.03;;;13.00;99.90;;;;;;4861652;29;20293;-81
2022/09/16 09:08:55;;;;;;;13.50;12.33;;;13.00;99.90;;;;;;4861909;29;20221;-79
2022/09/16 09:11:30;;;;;;;13.00;12.20;;;13.00;99.90;;;;;;4861637;29;20216;-78
2022/09/16 09:14:09;;;;;;;13.20;12.23;;;13.10;99.90;;;;;;4861915;29;20553;-82
2022/09/16 09:16:46;;;;;;;12.10;11.30;;;13.20;99.90;;;;;;4860768;29;20209;-78
2022/09/16 09:19:23;;;;;;;8.40;7.77;;;13.20;99.90;;;;;;4845987;29;20233;-78
2022/09/16 09:21:59;;;;;;;9.90;9.20;;;13.30;99.90;;;;;;4862140;29;20209;-78
2022/09/16 09:24:42;;;;;;;5.87;5.30;;;13.40;99.90;;;;;;4862622;29;20194;-78
2022/09/16 09:27:15;;;;;;;12.93;11.97;;;13.30;99.90;;;;;;4845950;29;20214;-78
2022/09/16 09:29:59;;;;;;;12.77;11.80;;;13.40;99.90;;;;;;4845399;29;20282;-78
2022/09/16 09:32:41;;;;;;;12.43;11.53;;;13.40;99.90;;;;;;4862257;29;20655;-77
2022/09/16 09:35:21;;;;;;;12.13;11.33;;;13.50;99.90;;;;;;4846384;29;20221;-78
2022/09/16 09:38:10;;;;;;;4.63;4.10;;;13.40;99.90;;;;;;4867815;29;20232;-78
2022/09/16 09:40:42;;;;;;;8.23;7.63;;;13.20;99.90;;;;;;4862871;29;20229;-78
2022/09/16 09:43:14;;;;;;;4.43;4.07;;;13.20;99.90;;;;;;4867463;29;20740;-78
2022/09/16 09:45:48;;;;;;;4.90;4.50;;;13.10;99.90;;;;;;4849474;29;20744;-78
2022/09/16 09:48:22;;;;;;;4.37;4.07;;;13.20;99.90;;;;;;4868353;29;20622;-78
2022/09/16 09:50:50;;;;;;;5.67;4.70;;;13.40;99.90;;;;;;4852222;29;20209;-78
2022/09/16 09:53:23;;;;;;;5.43;4.40;;;13.40;99.90;;;;;;4852044;29;20621;-78
2022/09/16 09:55:57;;;;;;;6.07;4.30;;;13.40;99.90;;;;;;4869003;29;20275;-78
2022/09/16 09:58:33;;;;;;;5.00;4.60;;;13.40;99.90;;;;;;4870926;29;20289;-78
2022/09/16 10:01:00;;;;;;;4.90;4.10;;;13.40;99.90;;;;;;4853679;29;20291;-81
2022/09/16 10:03:30;;;;;;;7.37;6.77;;;13.40;99.90;;;;;;4841222;29;20268;-80
2022/09/16 10:05:57;;;;;;;7.10;6.60;;;13.50;99.90;;;;;;4842341;29;20230;-80
2022/09/16 10:08:28;;;;;;;4.73;4.30;;;13.50;99.90;;;;;;4853935;29;20201;-81
2022/09/16 10:10:58;;;;;;;4.60;4.20;;;13.40;99.90;;;;;;4850972;29;20214;-80
2022/09/16 10:13:26;;;;;;;4.60;4.20;;;13.50;99.90;;;;;;4867096;29;20317;-83
2022/09/16 10:15:55;;;;;;;4.90;4.50;;;13.70;99.90;;;;;;4852235;29;20228;-82
2022/09/16 10:18:25;;;;;;;13.37;12.33;;;13.90;99.90;;;;;;4869818;29;20228;-83
2022/09/16 10:21:02;;;;;;;12.77;12.07;;;14.30;99.90;;;;;;4868574;29;20198;-84
2022/09/16 10:23:29;;;;;;;5.93;5.33;;;14.60;99.90;;;;;;4862666;29;20268;-84
2022/09/16 10:26:19;;;;;;;13.07;12.17;;;15.00;99.90;;;;;;4845008;29;20202;-84
2022/09/16 10:28:58;;;;;;;11.87;11.07;;;15.30;99.90;;;;;;4844422;29;20322;-81
2022/09/16 10:31:27;;;;;;;12.17;11.47;;;15.30;99.90;;;;;;4846428;29;20205;-81
2022/09/16 10:33:55;;;;;;;12.60;11.60;;;15.60;99.90;;;;;;4845413;29;20209;-82
2022/09/16 10:36:25;;;;;;;5.70;5.30;;;15.70;99.90;;;;;;4863261;29;20660;-81
2022/09/16 10:38:55;;;;;;;11.53;10.83;;;16.00;99.90;;;;;;4845289;29;20260;-81
2022/09/16 10:41:24;;;;;;;12.33;11.53;;;16.30;99.90;;;;;;4846463;29;20217;-81
2022/09/16 10:43:53;;;;;;;12.03;11.23;;;16.20;99.90;;;;;;4845413;29;20202;-82
2022/09/16 10:46:20;;;;;;;11.23;10.63;;;16.20;99.90;;;;;;4846424;29;20638;-81
2022/09/16 10:48:49;;;;;;;11.73;11.03;;;15.90;99.90;;;;;;4861955;29;20600;-82
2022/09/16 10:51:26;;;;;;;11.57;10.87;;;15.80;99.90;;;;;;4862720;29;20237;-81
2022/09/16 10:53:54;;;;;;;11.80;11.10;;;15.70;99.90;;;;;;4845387;29;20212;-81
2022/09/16 10:56:24;;;;;;;11.73;11.03;;;15.60;99.90;;;;;;4846384;29;20249;-81
2022/09/16 10:59:02;;;;;;;12.07;11.30;;;15.50;99.90;;;;;;4844156;29;20636;-79
2022/09/16 11:01:42;;;;;;;12.00;11.20;;;15.30;99.90;;;;;;4846310;29;20213;-79
2022/09/16 11:04:48;;;;;;;11.80;11.10;;;15.30;99.90;;;;;;4862224;29;20209;-79
2022/09/16 11:07:30;;;;;;;5.90;5.40;;;15.30;99.90;;;;;;4846869;29;20201;-81
2022/09/16 11:10:08;;;;;;;8.27;7.77;;;15.30;99.90;;;;;;4844092;29;20329;-81
2022/09/16 11:12:53;;;;;;;6.67;6.27;;;15.40;99.90;;;;;;4860122;29;20276;-81
2022/09/16 11:15:35;;;;;;;7.67;7.20;;;15.40;99.90;;;;;;4846456;29;20275;-82
2022/09/16 11:18:22;;;;;;;8.33;7.73;;;15.50;99.90;;;;;;4860266;29;20205;-81
2022/09/16 11:21:00;;;;;;;4.90;4.50;;;15.50;99.90;;;;;;4860877;29;20240;-81
2022/09/16 11:23:44;;;;;;;4.47;4.07;;;15.40;99.90;;;;;;4859137;29;20225;-80
2022/09/16 11:26:17;;;;;;;7.93;7.30;;;15.40;99.90;;;;;;4846070;29;20210;-82
2022/09/16 11:28:54;;;;;;;7.97;7.40;;;15.30;99.90;;;;;;4844002;29;20240;-80
2022/09/16 11:31:33;;;;;;;11.10;10.50;;;15.30;99.90;;;;;;4894286;29;20236;-78
2022/09/16 11:34:08;;;;;;;9.17;8.47;;;15.30;99.90;;;;;;4898018;29;20213;-77
2022/09/16 11:36:45;;;;;;;6.33;5.73;;;15.20;99.90;;;;;;4896748;29;20647;-77
2022/09/16 11:39:37;;;;;;;5.03;4.23;;;15.30;99.90;;;;;;4881363;29;20811;-78
2022/09/16 11:42:14;;;;;;;4.23;3.67;;;15.40;99.90;;;;;;4898265;29;20199;-79
2022/09/16 11:44:47;;;;;;;4.30;3.93;;;15.60;99.90;;;;;;4895279;29;20204;-77
2022/09/16 11:47:30;;;;;;;4.70;4.30;;;15.80;99.90;;;;;;4880608;29;20219;-76
2022/09/16 11:50:20;;;;;;;5.00;4.60;;;15.90;99.90;;;;;;4881419;29;20223;-78
2022/09/16 11:53:01;;;;;;;6.13;4.60;;;16.00;99.90;;;;;;4880835;29;20200;-78
2022/09/16 11:55:41;;;;;;;4.73;4.33;;;16.00;99.90;;;;;;4879362;29;20220;-77
2022/09/16 11:58:22;;;;;;;4.20;3.90;;;16.20;99.90;;;;;;4880128;29;20623;-77
2022/09/16 12:00:51;;;;;;;4.50;4.10;;;16.20;99.90;;;;;;4881097;29;20236;-77
2022/09/16 12:03:28;;;;;;;5.53;5.03;;;16.20;99.90;;;;;;4898233;29;20636;-78
2022/09/16 12:06:04;;;;;;;11.23;10.47;;;16.40;99.90;;;;;;4883060;29;20697;-78
2022/09/16 12:08:40;;;;;;;12.13;11.23;;;16.50;99.90;;;;;;4875789;29;20299;-77
2022/09/16 12:11:19;;;;;;;6.20;5.70;;;16.40;99.90;;;;;;4896259;29;20729;-76
2022/09/16 12:13:49;;;;;;;4.17;3.77;;;16.40;99.90;;;;;;4890017;29;20208;-75
2022/09/16 12:16:20;;;;;;;10.43;9.60;;;16.40;99.90;;;;;;4888940;29;20232;-75
2022/09/16 12:18:51;;;;;;;10.73;10.03;;;16.50;99.90;;;;;;4894088;29;20201;-75
2022/09/16 12:21:24;;;;;;;10.00;9.30;;;16.60;99.90;;;;;;4897198;29;20204;-75
2022/09/16 12:23:56;;;;;;;10.90;10.20;;;16.70;99.90;;;;;;4899449;29;20207;-75
2022/09/16 12:26:28;;;;;;;5.20;4.50;;;16.70;99.90;;;;;;4896656;29;20193;-75
2022/09/16 12:29:01;;;;;;;4.37;3.93;;;16.70;99.90;;;;;;4898292;29;20220;-75
2022/09/16 12:31:34;;;;;;;10.10;9.40;;;16.70;99.90;;;;;;4890211;29;20559;-75
2022/09/16 12:34:04;;;;;;;9.70;8.93;;;16.90;99.90;;;;;;4880878;29;20211;-78
2022/09/16 12:36:35;;;;;;;9.37;8.80;;;17.00;99.90;;;;;;4896440;29;20215;-77
2022/09/16 12:39:02;;;;;;;11.03;10.23;;;17.30;99.90;;;;;;4878526;29;20201;-78
2022/09/16 12:41:48;;;;;;;10.60;9.90;;;17.40;99.90;;;;;;4889012;29;20193;-77
2022/09/16 12:44:49;;;;;;;10.23;9.57;;;17.70;99.90;;;;;;4892260;29;20205;-78
2022/09/16 12:47:36;;;;;;;11.03;10.10;;;17.70;99.90;;;;;;4859891;29;20221;-77
2022/09/16 12:50:18;;;;;;;10.50;9.80;;;17.70;99.90;;;;;;4891906;29;20213;-77
2022/09/16 12:53:10;;;;;;;11.33;10.60;;;17.70;99.90;;;;;;4894978;29;20202;-78
2022/09/16 12:55:53;;;;;;;9.33;8.73;;;17.70;99.90;;;;;;4892388;29;20214;-77